This is the latest recevied weather packets stored in our database for station/object OM7FX-15. If no packets are shown the sender has not sent any weather packets the latest 10 day(s).
| Time | Temp. | Humidity | Pressure | Rain* | Wind** | Luminosity | Snow |
|---|---|---|---|---|---|---|---|
| 1777671178 | 23.89° C | 41% | 977.8 hPa | - | - | - | - |
| 1777670278 | 23.89° C | 40% | 977.8 hPa | - | - | - | - |
| 1777669377 | 23.89° C | 40% | 977.8 hPa | - | - | - | - |
| 1777668477 | 23.89° C | 40% | 977.8 hPa | - | - | - | - |
| 1777667577 | 23.89° C | 39% | 977.7 hPa | - | - | - | - |
| 1777666677 | 23.89° C | 38% | 977.6 hPa | - | - | - | - |
| 1777665777 | 23.89° C | 39% | 977.6 hPa | - | - | - | - |
| 1777664877 | 23.89° C | 38% | 977.6 hPa | - | - | - | - |
| 1777663977 | 23.89° C | 38% | 977.8 hPa | - | - | - | - |
| 1777663077 | 24.44° C | 38% | 977.6 hPa | - | - | - | - |
| 1777662177 | 24.44° C | 37% | 977.6 hPa | - | - | - | - |
| 1777661277 | 24.44° C | 39% | 977.4 hPa | - | - | - | - |
| 1777660377 | 24.44° C | 39% | 977.4 hPa | - | - | - | - |
| 1777659477 | 25° C | 38% | 977.2 hPa | - | - | - | - |
| 1777658577 | 25° C | 38% | 977.1 hPa | - | - | - | - |
| 1777657677 | 25.56° C | 38% | 977.1 hPa | - | - | - | - |
| 1777656776 | 26.11° C | 36% | 977 hPa | - | - | - | - |
| 1777655876 | 26.11° C | 35% | 976.9 hPa | - | - | - | - |
| 1777654976 | 26.67° C | 34% | 976.8 hPa | - | - | - | - |
| 1777654076 | 29.44° C | 31% | 976.9 hPa | - | - | - | - |
| 1777653176 | 28.89° C | 31% | 977 hPa | - | - | - | - |
| 1777652276 | 29.44° C | 30% | 977.1 hPa | - | - | - | - |
| 1777651376 | 26.67° C | 33% | 977.1 hPa | - | - | - | - |
| 1777650476 | 28.89° C | 31% | 977.1 hPa | - | - | - | - |
| 1777649576 | 26.67° C | 36% | 977.2 hPa | - | - | - | - |
* Rain since midnight (hover to see other rain measurements)
** Current wind speed in m/s (hover to see current wind gust speed)